Garden Grove, California
Current Conditions -  °F | °C
As of 4:53 PM on Friday 19 Dec 2014 (Local Time) from KFUL Reporting Station
Clear Clear  
Wind Chill: 62°   Ceiling: Unl
Heat Index: 62°   Visibility: 10mi
Dew Point: 48°   Wind: 5mph
Humidity: 60%   Direction: 290°WNW
Pressure: 30.14"   Gusts: NA
Location:  33.78°N, 117.93°W
Report Text: KFUL 200053Z 29004KT 10SM CLR 17/09 A3014 RMK AO2 SLP206 T01670089
Loading
Personal Weather Stations






























Interactive Weather Map New forecast layout! Learn more

10-Day Weather Forecast

Advertisements
Track Severe Weather on mobile